createdAt,value
2023-02-01T00:01:02.755Z,19.10
2023-02-01T00:02:04.974Z,14.00
2023-02-01T00:03:09.212Z,14.18
2023-02-01T00:04:16.550Z,14.60
2023-02-01T00:05:21.155Z,7.20
2023-02-01T00:06:24.295Z,13.50
2023-02-01T00:07:26.469Z,14.73
2023-02-01T00:08:28.639Z,14.30
2023-02-01T00:09:31.708Z,12.60
2023-02-01T00:10:33.943Z,12.60
2023-02-01T00:11:36.065Z,17.30
2023-02-01T00:12:38.562Z,15.00
2023-02-01T00:13:42.159Z,17.60
2023-02-01T00:14:44.219Z,11.40
2023-02-01T00:15:46.229Z,16.70
2023-02-01T00:16:48.628Z,13.60
2023-02-01T00:17:55.839Z,17.60
2023-02-01T00:19:10.882Z,14.40
2023-02-01T00:20:14.075Z,15.40
2023-02-01T00:21:21.064Z,12.60
2023-02-01T00:22:29.057Z,14.80
2023-02-01T00:23:35.891Z,20.10
2023-02-01T00:24:38.212Z,20.80
2023-02-01T00:25:40.324Z,17.70
2023-02-01T00:26:46.206Z,14.10
2023-02-01T00:27:51.527Z,14.80
2023-02-01T00:28:54.354Z,19.50
2023-02-01T00:29:57.806Z,15.60
2023-02-01T00:31:02.945Z,17.30
2023-02-01T00:32:05.526Z,12.80
2023-02-01T00:33:08.129Z,13.90
2023-02-01T00:34:13.241Z,14.50
2023-02-01T00:35:15.787Z,16.30
2023-02-01T00:36:18.502Z,14.90
2023-02-01T00:37:21.296Z,15.90
2023-02-01T00:38:24.174Z,14.60
2023-02-01T00:39:27.133Z,16.00
2023-02-01T00:40:29.502Z,13.70
2023-02-01T00:41:32.001Z,11.70
2023-02-01T00:42:34.437Z,14.10
2023-02-01T00:43:37.048Z,18.20
2023-02-01T00:44:39.632Z,16.00
2023-02-01T00:45:43.317Z,13.70
2023-02-01T00:46:45.695Z,22.30
2023-02-01T00:47:48.219Z,14.10
2023-02-01T00:48:50.726Z,14.70
2023-02-01T00:49:52.980Z,15.90
2023-02-01T00:50:57.421Z,23.20
2023-02-01T00:52:00.567Z,18.00
2023-02-01T00:53:03.596Z,15.00
2023-02-01T00:54:06.021Z,13.73
2023-02-01T00:55:09.341Z,15.80
2023-02-01T00:56:12.813Z,13.00
2023-02-01T00:57:16.300Z,14.70
2023-02-01T00:58:19.174Z,16.40
2023-02-01T00:59:21.568Z,26.55
2023-02-01T01:00:24.325Z,35.20
2023-02-01T01:01:28.331Z,38.30
2023-02-01T01:02:31.642Z,46.00
2023-02-01T01:03:39.218Z,37.00
2023-02-01T01:04:42.020Z,41.80
2023-02-01T01:05:49.310Z,30.64
2023-02-01T01:06:51.932Z,31.90
2023-02-01T01:07:55.895Z,29.40
2023-02-01T01:09:04.697Z,25.90
2023-02-01T01:10:07.942Z,22.40
2023-02-01T01:11:17.310Z,20.70
2023-02-01T01:12:21.333Z,15.50
2023-02-01T01:13:24.327Z,17.00
2023-02-01T01:14:27.099Z,18.20
2023-02-01T01:15:29.456Z,23.50
2023-02-01T01:16:32.799Z,24.40
2023-02-01T01:17:37.797Z,34.40
2023-02-01T01:18:40.848Z,38.20
2023-02-01T01:19:43.931Z,42.60
2023-02-01T01:20:48.210Z,41.70
2023-02-01T01:21:51.322Z,31.50
2023-02-01T01:22:53.791Z,38.20
2023-02-01T01:23:56.630Z,33.30
2023-02-01T01:24:59.038Z,32.64
2023-02-01T01:26:02.750Z,21.20
2023-02-01T01:27:06.728Z,30.50
2023-02-01T01:28:10.241Z,26.50
2023-02-01T01:29:12.761Z,21.80
2023-02-01T01:30:16.149Z,23.36
2023-02-01T01:31:19.859Z,16.50
2023-02-01T01:32:22.929Z,19.70
2023-02-01T01:33:25.796Z,20.80
2023-02-01T01:34:28.522Z,17.30
2023-02-01T01:35:32.264Z,17.18
2023-02-01T01:36:34.768Z,23.10
2023-02-01T01:37:37.721Z,19.20
2023-02-01T01:38:41.143Z,23.10
2023-02-01T01:39:43.761Z,19.50
2023-02-01T01:40:50.227Z,19.20
2023-02-01T01:41:52.493Z,24.40
2023-02-01T01:42:57.815Z,19.50
2023-02-01T01:44:04.169Z,22.80
2023-02-01T01:45:10.346Z,18.60
2023-02-01T01:47:44.145Z,19.30
2023-02-01T01:48:51.225Z,18.80
2023-02-01T01:49:53.771Z,18.10
2023-02-01T01:51:00.220Z,17.30
2023-02-01T01:52:04.124Z,17.40
2023-02-01T01:53:10.371Z,18.60
2023-02-01T01:54:21.609Z,21.20
2023-02-01T01:55:26.416Z,19.00
2023-02-01T01:56:31.913Z,25.40
2023-02-01T01:57:38.170Z,22.70
2023-02-01T01:58:42.037Z,20.50
2023-02-01T01:59:48.082Z,25.50
2023-02-01T02:00:50.844Z,24.09
2023-02-01T02:01:53.917Z,21.60
2023-02-01T02:04:24.105Z,21.90
2023-02-01T02:05:27.242Z,22.80
2023-02-01T02:06:50.416Z,20.60
2023-02-01T02:07:55.989Z,17.80
2023-02-01T02:08:58.509Z,17.80
2023-02-01T02:10:02.618Z,20.50
2023-02-01T02:11:05.200Z,28.80
2023-02-01T02:12:07.351Z,37.50
2023-02-01T02:13:10.568Z,51.70
2023-02-01T02:14:15.464Z,52.80
2023-02-01T02:15:18.426Z,55.50
2023-02-01T02:16:27.585Z,59.20
2023-02-01T02:17:53.321Z,57.10
2023-02-01T02:19:00.118Z,53.10
2023-02-01T02:20:24.560Z,54.90
2023-02-01T02:21:51.463Z,48.70
2023-02-01T02:23:00.234Z,33.40
2023-02-01T02:24:25.810Z,44.00
2023-02-01T02:25:48.442Z,38.70
2023-02-01T02:27:13.242Z,29.40
2023-02-01T02:28:25.993Z,31.70
2023-02-01T02:29:52.283Z,26.50
2023-02-01T02:31:32.138Z,26.20
2023-02-01T02:32:47.609Z,23.90
2023-02-01T02:34:05.821Z,22.60
2023-02-01T02:35:14.998Z,22.00
2023-02-01T02:36:29.675Z,11.80
2023-02-01T02:37:44.622Z,25.80
2023-02-01T02:39:14.287Z,23.40
2023-02-01T02:40:22.962Z,38.20
2023-02-01T02:41:45.774Z,33.50
2023-02-01T02:43:19.729Z,31.30
2023-02-01T02:44:44.213Z,49.20
2023-02-01T02:46:08.927Z,49.10
2023-02-01T02:47:25.063Z,19.80
2023-02-01T02:48:40.363Z,37.30
2023-02-01T02:49:51.514Z,22.60
2023-02-01T02:51:32.420Z,37.50
2023-02-01T02:52:58.275Z,34.70
2023-02-01T02:54:28.925Z,39.80
2023-02-01T02:55:37.198Z,47.40
2023-02-01T02:56:59.591Z,52.20
2023-02-01T02:58:23.901Z,30.50
2023-02-01T02:59:47.571Z,29.20
2023-02-01T03:01:11.758Z,27.40
2023-02-01T03:02:36.715Z,25.30
2023-02-01T03:03:58.193Z,23.60
2023-02-01T03:05:00.992Z,12.30
2023-02-01T03:06:04.498Z,19.50
2023-02-01T03:07:44.520Z,21.30
2023-02-01T03:08:47.798Z,19.00
2023-02-01T03:09:52.349Z,16.70
2023-02-01T03:11:04.664Z,16.64
2023-02-01T03:12:29.180Z,19.50
2023-02-01T03:13:47.496Z,17.40
2023-02-01T03:14:53.191Z,14.20
2023-02-01T03:16:14.324Z,18.20
2023-02-01T03:17:20.585Z,20.10
2023-02-01T03:18:32.597Z,17.80
2023-02-01T03:19:46.201Z,24.10
2023-02-01T03:20:52.934Z,28.30
2023-02-01T03:22:02.466Z,21.00
2023-02-01T03:23:07.081Z,23.50
2023-02-01T03:24:28.262Z,21.50
2023-02-01T03:25:33.411Z,24.50
2023-02-01T03:26:40.178Z,19.90
2023-02-01T03:28:01.788Z,28.00
2023-02-01T03:29:14.441Z,25.50
2023-02-01T03:30:26.377Z,23.10
2023-02-01T03:31:29.953Z,30.90
2023-02-01T03:32:36.725Z,22.90
2023-02-01T03:33:40.258Z,27.00
2023-02-01T03:34:44.295Z,32.90
2023-02-01T03:36:13.379Z,22.70
2023-02-01T03:37:23.919Z,27.40
2023-02-01T03:38:41.830Z,25.20
2023-02-01T03:40:07.719Z,29.10
2023-02-01T03:41:22.219Z,32.70
2023-02-01T03:44:16.009Z,33.90
2023-02-01T03:45:39.200Z,35.90
2023-02-01T03:46:54.551Z,33.30
2023-02-01T03:48:00.523Z,27.80
2023-02-01T03:49:06.490Z,19.20
2023-02-01T03:50:13.353Z,29.00
2023-02-01T03:51:18.532Z,33.90
2023-02-01T03:52:27.330Z,25.40
2023-02-01T03:53:33.351Z,28.70
2023-02-01T03:54:38.340Z,25.80
2023-02-01T03:55:43.179Z,28.30
2023-02-01T03:56:48.741Z,23.90
2023-02-01T03:57:57.535Z,26.60
2023-02-01T03:58:59.872Z,29.40
2023-02-01T04:00:12.380Z,24.80
2023-02-01T04:01:17.229Z,15.90
2023-02-01T04:02:19.648Z,26.50
2023-02-01T04:03:25.682Z,30.20
2023-02-01T04:04:27.641Z,24.40
2023-02-01T04:05:30.743Z,25.90
2023-02-01T04:06:34.736Z,27.10
2023-02-01T04:07:38.300Z,28.10
2023-02-01T04:08:40.801Z,33.70
2023-02-01T04:09:42.753Z,30.56
2023-02-01T04:10:46.141Z,26.50
2023-02-01T04:11:48.196Z,32.18
2023-02-01T04:12:50.715Z,27.70
2023-02-01T04:13:52.835Z,26.00
2023-02-01T04:14:55.235Z,21.80
2023-02-01T04:15:57.124Z,23.60
2023-02-01T04:16:59.059Z,27.00
2023-02-01T04:18:01.378Z,24.00
2023-02-01T04:19:03.935Z,27.00
2023-02-01T04:20:07.624Z,27.20
2023-02-01T04:21:09.932Z,28.80
2023-02-01T04:23:16.540Z,22.70
2023-02-01T04:24:18.963Z,26.10
2023-02-01T04:25:20.971Z,28.60
2023-02-01T04:26:23.703Z,26.00
2023-02-01T04:27:25.984Z,33.90
2023-02-01T04:28:28.772Z,29.50
2023-02-01T04:29:30.812Z,24.90
2023-02-01T04:30:33.641Z,33.20
2023-02-01T04:31:36.947Z,28.82
2023-02-01T04:32:40.921Z,29.40
2023-02-01T04:33:44.381Z,28.10
2023-02-01T04:34:46.940Z,25.90
2023-02-01T04:35:49.185Z,27.60
2023-02-01T04:36:51.917Z,29.70
2023-02-01T04:37:54.015Z,29.90
2023-02-01T04:38:56.151Z,32.00
2023-02-01T04:39:58.819Z,30.10
2023-02-01T04:41:01.444Z,25.09
2023-02-01T04:42:03.985Z,28.80
2023-02-01T04:43:06.564Z,26.40
2023-02-01T04:44:12.681Z,22.80
2023-02-01T04:45:15.067Z,29.50
2023-02-01T04:46:17.349Z,25.50
2023-02-01T04:47:20.003Z,10.40
2023-02-01T04:48:24.935Z,25.80
2023-02-01T04:49:27.198Z,21.70
2023-02-01T04:50:30.125Z,22.30
2023-02-01T04:51:32.921Z,25.45
2023-02-01T04:52:34.932Z,24.80
2023-02-01T04:53:37.359Z,29.40
2023-02-01T04:54:39.663Z,32.10
2023-02-01T04:55:42.701Z,24.40
2023-02-01T04:56:45.051Z,26.70
2023-02-01T04:57:47.286Z,27.90
2023-02-01T04:58:49.696Z,22.00
2023-02-01T04:59:52.952Z,27.40
2023-02-01T05:00:55.134Z,19.50
2023-02-01T05:01:57.241Z,29.60
2023-02-01T05:02:59.476Z,25.90
2023-02-01T05:04:02.157Z,27.20
2023-02-01T05:05:05.114Z,29.90
2023-02-01T05:06:07.897Z,16.09
2023-02-01T05:07:10.362Z,30.90
2023-02-01T05:08:12.830Z,31.80
2023-02-01T05:09:14.960Z,30.10
2023-02-01T05:10:17.399Z,25.50
2023-02-01T05:11:38.050Z,27.80
2023-02-01T05:12:58.497Z,29.80
2023-02-01T05:14:02.535Z,32.30
2023-02-01T05:15:06.147Z,28.60
2023-02-01T05:16:08.584Z,25.30
2023-02-01T05:17:10.815Z,28.60
2023-02-01T05:18:13.618Z,28.90
2023-02-01T05:19:15.545Z,26.40
2023-02-01T05:20:18.440Z,31.10
2023-02-01T05:21:20.840Z,31.55
2023-02-01T05:22:23.944Z,29.90
2023-02-01T05:23:26.559Z,27.73
2023-02-01T05:24:28.704Z,32.30
2023-02-01T05:25:52.705Z,24.20
2023-02-01T05:26:55.008Z,19.00
2023-02-01T05:27:57.071Z,27.50
2023-02-01T05:29:00.708Z,32.40
2023-02-01T05:30:05.627Z,29.20
2023-02-01T05:31:12.526Z,27.80
2023-02-01T05:32:22.128Z,35.80
2023-02-01T05:33:19.543Z,28.80
2023-02-01T05:34:21.547Z,32.20
2023-02-01T05:35:23.654Z,27.90
2023-02-01T05:36:26.263Z,35.40
2023-02-01T05:37:28.386Z,30.90
2023-02-01T05:38:30.941Z,35.80
2023-02-01T05:39:33.650Z,28.10
2023-02-01T05:40:36.399Z,28.18
2023-02-01T05:41:39.046Z,31.27
2023-02-01T05:42:41.035Z,32.60
2023-02-01T05:43:43.417Z,37.56
2023-02-01T05:44:45.440Z,33.80
2023-02-01T05:45:47.985Z,34.60
2023-02-01T05:46:52.393Z,36.20
2023-02-01T05:47:56.708Z,26.90
2023-02-01T05:48:58.976Z,33.60
2023-02-01T05:50:00.990Z,22.50
2023-02-01T05:51:03.295Z,34.00
2023-02-01T05:52:06.099Z,27.60
2023-02-01T09:13:29.259Z,37.90
2023-02-01T09:14:32.211Z,29.00
2023-02-01T09:15:35.526Z,29.80
2023-02-01T09:16:37.676Z,27.30
2023-02-01T09:17:42.824Z,27.50
2023-02-01T09:18:55.803Z,31.80
2023-02-01T09:19:49.622Z,26.80
2023-02-01T09:20:52.824Z,28.00
2023-02-01T09:21:55.137Z,30.09
2023-02-01T09:22:58.119Z,29.40
2023-02-01T09:24:00.922Z,23.64
2023-02-01T09:25:03.829Z,26.73
2023-02-01T09:26:08.256Z,17.60
2023-02-01T09:27:10.763Z,24.60
2023-02-01T09:28:12.857Z,28.60
2023-02-01T09:29:16.295Z,25.10
2023-02-01T09:30:19.782Z,25.40
2023-02-01T09:31:22.587Z,28.70
2023-02-01T09:32:26.140Z,22.50
2023-02-01T09:33:29.366Z,23.50
2023-02-01T09:34:31.622Z,23.10
2023-02-01T09:35:34.348Z,20.30
2023-02-01T09:36:37.105Z,21.92
2023-02-01T09:37:40.160Z,19.00
2023-02-01T09:38:52.446Z,25.36
2023-02-01T09:39:46.280Z,19.80
2023-02-01T09:40:48.560Z,13.70
2023-02-01T09:41:55.537Z,18.40
2023-02-01T09:43:10.258Z,19.30
2023-02-01T09:44:42.447Z,19.20
2023-02-01T09:45:51.918Z,21.10
2023-02-01T09:47:00.758Z,18.80
2023-02-01T09:48:07.661Z,11.30
2023-02-01T09:49:16.384Z,14.20
2023-02-01T09:50:22.740Z,16.10
2023-02-01T09:52:46.964Z,14.10
2023-02-01T09:53:59.430Z,15.70
2023-02-01T09:55:14.576Z,16.10
2023-02-01T09:56:23.223Z,18.40
2023-02-01T09:57:29.844Z,16.90
2023-02-01T09:58:44.415Z,13.00
2023-02-01T10:01:12.973Z,14.50
2023-02-01T10:02:24.913Z,22.80
2023-02-01T10:03:36.177Z,13.90
2023-02-01T10:04:38.530Z,13.60
2023-02-01T10:06:04.180Z,11.00
2023-02-01T10:07:13.124Z,10.50
2023-02-01T10:08:34.187Z,12.20
2023-02-01T10:10:08.173Z,12.00
2023-02-01T10:11:36.894Z,14.20
2023-02-01T10:13:06.941Z,15.80
2023-02-01T10:14:17.065Z,11.40
2023-02-01T10:15:29.040Z,12.60
2023-02-01T10:16:47.352Z,16.90
2023-02-01T10:18:18.875Z,12.00
2023-02-01T10:19:34.141Z,13.90
2023-02-01T10:20:58.539Z,16.90
2023-02-01T10:22:04.704Z,16.40
2023-02-01T10:23:33.952Z,12.40
2023-02-01T10:24:33.501Z,19.60
2023-02-01T10:25:48.313Z,7.90
2023-02-01T10:28:04.763Z,12.30
2023-02-01T10:29:11.386Z,17.82
2023-02-01T10:30:18.041Z,20.40
2023-02-01T10:31:24.624Z,20.82
2023-02-01T10:32:35.397Z,22.10
2023-02-01T10:33:43.272Z,22.40
2023-02-01T10:34:49.617Z,22.60
2023-02-01T10:35:55.822Z,20.90
2023-02-01T10:37:04.658Z,12.90
2023-02-01T10:38:10.966Z,23.00
2023-02-01T10:39:15.723Z,19.30
2023-02-01T10:40:22.550Z,14.90
2023-02-01T10:41:35.700Z,18.20
2023-02-01T10:42:39.013Z,12.10
2023-02-01T10:43:43.537Z,24.60
2023-02-01T10:44:48.550Z,17.10
2023-02-01T10:45:51.220Z,16.00
2023-02-01T10:46:54.976Z,19.60
2023-02-01T10:48:00.299Z,18.50
2023-02-01T10:49:08.852Z,24.20
2023-02-01T10:50:18.019Z,14.60
2023-02-01T10:51:36.718Z,8.70
2023-02-01T10:54:00.866Z,13.60
2023-02-01T10:55:30.741Z,12.80
2023-02-01T10:56:36.528Z,16.10
2023-02-01T10:57:38.755Z,18.40
2023-02-01T10:58:47.319Z,15.60
2023-02-01T10:59:50.289Z,17.60
2023-02-01T11:01:06.818Z,15.91
2023-02-01T11:02:34.665Z,20.50
2023-02-01T11:03:43.075Z,20.00
2023-02-01T11:04:46.777Z,15.60
2023-02-01T11:05:50.975Z,9.10
2023-02-01T11:06:56.259Z,18.70
2023-02-01T11:08:01.762Z,18.30
2023-02-01T11:09:10.820Z,8.90
2023-02-01T11:11:53.348Z,17.30
2023-02-01T11:12:55.608Z,17.00
2023-02-01T11:14:03.664Z,12.67
2023-02-01T11:15:27.772Z,24.30
2023-02-01T11:16:38.577Z,18.70
2023-02-01T11:17:44.309Z,13.80
2023-02-01T11:18:50.125Z,22.10
2023-02-01T11:20:08.336Z,16.90
2023-02-01T11:21:11.809Z,21.20
2023-02-01T11:22:15.460Z,10.20
2023-02-01T11:23:22.029Z,13.70
2023-02-01T11:24:35.289Z,17.50
2023-02-01T11:25:37.740Z,13.00
2023-02-01T11:26:41.923Z,14.40
2023-02-01T11:27:54.907Z,13.30
2023-02-01T11:28:57.789Z,15.90
2023-02-01T11:30:05.415Z,18.50
2023-02-01T11:31:11.476Z,13.20
2023-02-01T11:32:17.301Z,13.70
2023-02-01T11:33:24.507Z,15.20
2023-02-01T11:34:33.069Z,17.30
2023-02-01T11:35:42.280Z,14.20
2023-02-01T11:36:46.989Z,5.00
2023-02-01T11:37:52.826Z,15.50
2023-02-01T11:39:15.153Z,14.90
2023-02-01T11:40:22.860Z,18.50
2023-02-01T11:41:28.395Z,15.20
2023-02-01T11:42:31.148Z,8.00
2023-02-01T11:43:33.318Z,15.00
2023-02-01T11:44:40.980Z,15.90
2023-02-01T11:45:55.570Z,17.20
2023-02-01T11:47:18.082Z,13.30
2023-02-01T11:48:26.725Z,10.20
2023-02-01T11:49:27.449Z,12.60
2023-02-01T11:50:39.802Z,14.10
2023-02-01T11:51:57.815Z,9.10
2023-02-01T11:53:12.374Z,10.90
2023-02-01T11:54:24.293Z,14.10
2023-02-01T11:55:42.255Z,12.40
2023-02-01T11:57:06.316Z,8.90
2023-02-01T11:58:22.559Z,11.20
2023-02-01T11:59:30.791Z,8.20
2023-02-01T12:01:11.294Z,9.40
2023-02-01T12:02:23.502Z,10.10
2023-02-01T12:03:38.375Z,7.90
2023-02-01T12:05:06.872Z,13.90
2023-02-01T12:06:32.610Z,13.50
2023-02-01T12:07:55.404Z,15.60
2023-02-01T12:09:07.680Z,8.60
2023-02-01T12:10:31.883Z,14.30
2023-02-01T12:12:02.332Z,9.10
2023-02-01T12:13:26.792Z,13.20
2023-02-01T12:15:00.163Z,17.20
2023-02-01T12:16:21.310Z,12.00
2023-02-01T12:17:33.395Z,11.00
2023-02-01T12:18:55.844Z,10.00
2023-02-01T12:20:16.785Z,13.00
2023-02-01T12:21:31.632Z,15.10
2023-02-01T12:22:53.170Z,10.40
2023-02-01T12:24:11.663Z,13.10
2023-02-01T12:25:20.900Z,13.90
2023-02-01T12:26:41.611Z,13.30
2023-02-01T12:27:56.566Z,12.80
2023-02-01T12:29:09.055Z,11.90
2023-02-01T12:30:34.452Z,8.60
2023-02-01T12:31:56.948Z,13.50
2023-02-01T12:33:08.788Z,12.30
2023-02-01T12:34:31.202Z,13.50
2023-02-01T12:35:52.270Z,11.90
2023-02-01T12:37:07.085Z,13.10
2023-02-01T12:38:30.711Z,14.10
2023-02-01T12:39:51.690Z,12.20
2023-02-01T12:41:32.891Z,12.80
2023-02-01T12:44:02.052Z,9.90
2023-02-01T12:45:18.424Z,12.10
2023-02-01T12:46:30.494Z,17.40
2023-02-01T12:47:45.429Z,14.70
2023-02-01T12:49:03.514Z,17.10
2023-02-01T12:50:26.180Z,12.80
2023-02-01T12:51:38.713Z,16.00
2023-02-01T12:52:47.686Z,19.00
2023-02-01T12:54:09.347Z,18.00
2023-02-01T12:55:25.262Z,12.10
2023-02-01T12:56:31.328Z,14.60
2023-02-01T12:57:40.400Z,18.70
2023-02-01T12:58:49.507Z,17.90
2023-02-01T12:59:58.557Z,18.40
2023-02-01T13:01:10.403Z,17.60
2023-02-01T13:02:18.794Z,13.20
2023-02-01T13:03:40.533Z,16.90
2023-02-01T13:05:17.630Z,19.90
2023-02-01T13:06:27.761Z,25.50
2023-02-01T13:07:33.750Z,18.50
2023-02-01T13:08:45.354Z,25.90
2023-02-01T13:11:19.657Z,19.90
2023-02-01T13:12:25.830Z,19.60
2023-02-01T13:13:40.711Z,21.40
2023-02-01T13:14:55.823Z,16.70
2023-02-01T13:16:02.509Z,17.90
2023-02-01T13:17:26.742Z,17.90
2023-02-01T13:18:33.103Z,18.80
2023-02-01T13:20:58.310Z,18.50
2023-02-01T13:22:10.807Z,29.70
2023-02-01T13:23:29.139Z,17.20
2023-02-01T13:24:46.519Z,24.20
2023-02-01T13:25:51.462Z,14.90
2023-02-01T13:26:55.666Z,21.40
2023-02-01T13:28:01.577Z,23.10
2023-02-01T13:29:07.477Z,19.90
2023-02-01T13:30:24.451Z,21.40
2023-02-01T13:31:42.375Z,19.40
2023-02-01T13:33:51.561Z,18.80
2023-02-01T13:35:42.529Z,18.30
2023-02-01T13:36:51.492Z,17.40
2023-02-01T13:37:57.310Z,20.40
2023-02-01T13:39:24.598Z,22.70
2023-02-01T13:40:36.785Z,22.50
2023-02-01T13:41:43.038Z,22.70
2023-02-01T13:42:56.088Z,17.90
2023-02-01T13:44:17.320Z,17.40
2023-02-01T13:45:26.812Z,18.00
2023-02-01T13:46:30.659Z,18.90
2023-02-01T13:47:36.750Z,19.90
2023-02-01T13:48:42.438Z,16.00
2023-02-01T13:49:44.763Z,23.30
2023-02-01T13:50:50.937Z,19.20
2023-02-01T13:51:56.494Z,14.10
2023-02-01T13:53:01.855Z,16.30
2023-02-01T13:54:06.292Z,15.90
2023-02-01T15:55:53.140Z,65.80
2023-02-01T15:56:58.474Z,48.00
2023-02-01T15:58:01.297Z,57.10
2023-02-01T15:59:18.630Z,42.30
2023-02-01T16:00:33.959Z,38.10
2023-02-01T16:01:43.058Z,39.90
2023-02-01T16:02:50.602Z,41.60
2023-02-01T16:04:11.685Z,42.45
2023-02-01T16:05:40.488Z,38.10
2023-02-01T16:06:55.681Z,31.80
2023-02-01T16:08:08.453Z,39.40
2023-02-01T16:09:14.996Z,42.60
2023-02-01T16:10:23.881Z,39.10
2023-02-01T16:11:30.856Z,37.80
2023-02-01T16:12:47.616Z,42.40
2023-02-01T16:13:50.824Z,41.50
2023-02-01T16:14:53.594Z,40.90
2023-02-01T16:15:55.658Z,38.60
2023-02-01T16:16:59.778Z,33.50
2023-02-01T16:18:01.994Z,34.80
2023-02-01T16:19:05.080Z,33.60
2023-02-01T16:20:09.458Z,38.00
2023-02-01T16:21:12.731Z,22.00
2023-02-01T16:22:15.022Z,38.70
2023-02-01T16:23:19.781Z,38.60
2023-02-01T16:24:25.264Z,40.90
2023-02-01T16:25:28.823Z,36.40
2023-02-01T16:26:32.787Z,41.30
2023-02-01T16:27:35.012Z,43.90
2023-02-01T16:28:38.382Z,37.50
2023-02-01T16:29:42.913Z,42.40
2023-02-01T16:30:45.657Z,45.90
2023-02-01T16:31:50.491Z,39.80
2023-02-01T16:33:02.856Z,39.70
2023-02-01T16:34:06.806Z,52.00
2023-02-01T16:35:20.585Z,38.00
2023-02-01T16:36:28.935Z,44.40
2023-02-01T16:37:33.930Z,46.50
2023-02-01T16:40:18.695Z,44.70
2023-02-01T16:41:42.087Z,49.20
2023-02-01T16:44:59.404Z,43.90
2023-02-01T16:46:05.447Z,40.60
2023-02-01T16:47:27.466Z,51.80
2023-02-01T16:48:35.471Z,45.00
2023-02-01T16:49:41.718Z,42.10
2023-02-01T16:50:53.130Z,44.40
2023-02-01T16:51:59.903Z,46.50
2023-02-01T16:53:03.755Z,49.00
2023-02-01T16:54:05.893Z,41.90
2023-02-01T16:55:17.905Z,48.56
2023-02-01T16:56:34.365Z,41.40
2023-02-01T16:57:36.763Z,47.20
2023-02-01T16:58:43.886Z,41.30
2023-02-01T16:59:46.992Z,45.90
2023-02-01T17:00:52.008Z,42.45
2023-02-01T17:01:54.879Z,39.30
2023-02-01T17:02:57.672Z,44.09
2023-02-01T17:04:01.862Z,39.00
2023-02-01T17:05:06.599Z,37.60
2023-02-01T17:07:44.960Z,51.89
2023-02-01T17:08:51.938Z,49.50
2023-02-01T17:09:55.665Z,43.20
2023-02-01T17:10:58.941Z,41.90
2023-02-01T17:12:01.214Z,42.80
2023-02-01T17:13:03.483Z,43.60
2023-02-01T17:14:12.271Z,41.00
2023-02-01T17:15:14.721Z,46.70
2023-02-01T17:16:20.642Z,50.00
2023-02-01T17:17:37.763Z,43.40
2023-02-01T17:18:33.998Z,43.10
2023-02-01T17:19:36.236Z,48.30
2023-02-01T17:20:38.925Z,49.20
2023-02-01T17:21:53.371Z,45.40
2023-02-01T17:22:55.905Z,44.30
2023-02-01T17:23:59.557Z,41.10
2023-02-01T17:25:02.501Z,43.40
2023-02-01T17:26:05.331Z,42.90
2023-02-01T17:27:07.687Z,45.10
2023-02-01T17:28:10.073Z,34.80
2023-02-01T17:29:13.599Z,48.00
2023-02-01T17:30:17.917Z,51.80
2023-02-01T17:31:20.961Z,52.30
2023-02-01T17:32:25.617Z,44.18
2023-02-01T17:33:36.562Z,50.60
2023-02-01T17:34:40.487Z,48.80
2023-02-01T17:35:46.322Z,43.30
2023-02-01T17:36:50.208Z,47.20
2023-02-01T17:37:53.256Z,52.60
2023-02-01T17:39:05.646Z,49.00
2023-02-01T17:40:02.236Z,41.30
2023-02-01T17:41:06.885Z,42.20
2023-02-01T17:42:11.825Z,41.90
2023-02-01T17:43:18.378Z,47.10
2023-02-01T17:44:22.077Z,50.80
2023-02-01T17:45:28.521Z,41.30
2023-02-01T17:46:31.929Z,43.40
2023-02-01T17:47:34.287Z,46.40
2023-02-01T17:48:36.333Z,40.10
2023-02-01T17:49:38.713Z,45.30
2023-02-01T17:50:41.570Z,49.50
2023-02-01T17:51:43.891Z,47.50
2023-02-01T17:52:47.816Z,44.10
2023-02-01T17:53:50.618Z,44.70
2023-02-01T17:54:53.503Z,42.73
2023-02-01T17:55:58.350Z,41.00
2023-02-01T17:57:02.862Z,40.70
2023-02-01T17:58:05.141Z,44.20
2023-02-01T17:59:07.863Z,48.30
2023-02-01T18:00:13.223Z,40.90
2023-02-01T18:01:21.778Z,47.00
2023-02-01T18:02:25.011Z,44.60
2023-02-01T18:03:30.126Z,45.20
2023-02-01T18:04:33.447Z,48.20
2023-02-01T18:05:45.593Z,42.40
2023-02-01T18:06:48.690Z,43.50
2023-02-01T18:07:51.958Z,45.20
2023-02-01T18:08:56.176Z,40.20
2023-02-01T18:09:59.408Z,23.80
2023-02-01T18:11:04.055Z,32.50
2023-02-01T18:12:10.187Z,40.70
2023-02-01T18:13:13.090Z,42.60
2023-02-01T18:14:16.760Z,38.64
2023-02-01T18:15:24.157Z,33.90
2023-02-01T18:16:31.773Z,51.10
2023-02-01T18:17:34.730Z,47.00
2023-02-01T18:18:39.047Z,34.70
2023-02-01T18:19:42.410Z,42.70
2023-02-01T18:20:46.774Z,42.40
2023-02-01T18:21:51.131Z,36.70
2023-02-01T18:22:53.942Z,40.80
2023-02-01T18:23:56.493Z,46.50
2023-02-01T18:24:59.375Z,39.20
2023-02-01T18:26:03.750Z,41.36
2023-02-01T18:27:09.602Z,44.70
2023-02-01T18:28:14.025Z,40.30
2023-02-01T18:29:17.387Z,33.20
2023-02-01T18:30:23.252Z,35.70
2023-02-01T18:31:29.693Z,34.40
2023-02-01T18:32:33.959Z,33.80
2023-02-01T18:33:36.139Z,32.90
2023-02-01T18:34:38.546Z,33.60
2023-02-01T18:35:41.364Z,26.00
2023-02-01T18:36:44.875Z,32.50
2023-02-01T18:37:48.384Z,34.40
2023-02-01T18:38:51.161Z,35.50
2023-02-01T18:39:53.445Z,30.40
2023-02-01T18:41:00.445Z,29.90
2023-02-01T18:42:03.872Z,28.80
2023-02-01T18:43:07.056Z,22.70
2023-02-01T18:44:17.488Z,27.30
2023-02-01T18:45:23.668Z,28.20
2023-02-01T18:46:30.320Z,28.90
2023-02-01T18:47:32.485Z,30.00
2023-02-01T18:48:34.774Z,26.10
2023-02-01T18:49:38.004Z,27.90
2023-02-01T18:50:43.627Z,28.80
2023-02-01T18:51:46.469Z,21.50
2023-02-01T18:52:54.815Z,28.60
2023-02-01T18:53:57.129Z,26.20
2023-02-01T18:55:00.555Z,26.50
2023-02-01T18:56:04.011Z,26.50
2023-02-01T18:57:06.198Z,26.10
2023-02-01T18:58:10.228Z,22.30
2023-02-01T18:59:13.096Z,26.20
2023-02-01T19:00:18.103Z,28.36
2023-02-01T19:01:22.734Z,32.60
2023-02-01T19:02:26.546Z,25.10
2023-02-01T19:03:30.299Z,24.20
2023-02-01T19:04:34.029Z,23.55
2023-02-01T19:05:38.261Z,27.10
2023-02-01T19:06:40.911Z,35.40
2023-02-01T19:07:44.865Z,36.73
2023-02-01T19:08:49.390Z,35.50
2023-02-01T19:09:53.146Z,37.80
2023-02-01T19:10:55.617Z,32.90
2023-02-01T19:11:57.761Z,43.10
2023-02-01T19:13:00.671Z,29.10
2023-02-01T19:14:05.584Z,29.73
2023-02-01T19:15:13.575Z,41.90
2023-02-01T19:16:16.724Z,34.70
2023-02-01T19:17:19.564Z,38.30
2023-02-01T19:18:22.670Z,41.20
2023-02-01T19:19:26.024Z,34.91
2023-02-01T19:20:29.722Z,37.40
2023-02-01T19:21:33.288Z,31.00
2023-02-01T19:22:39.424Z,37.00
2023-02-01T19:23:42.570Z,30.70
2023-02-01T19:24:46.535Z,36.10
2023-02-01T19:25:48.987Z,35.50
2023-02-01T19:26:52.528Z,37.60
2023-02-01T19:27:55.871Z,31.50
2023-02-01T19:28:59.604Z,35.80
2023-02-01T19:30:02.676Z,37.60
2023-02-01T19:31:07.747Z,41.10
2023-02-01T19:32:11.855Z,36.20
2023-02-01T19:33:15.468Z,31.50
2023-02-01T19:34:18.140Z,28.40
2023-02-01T19:35:21.857Z,33.60
2023-02-01T19:36:27.655Z,17.10
2023-02-01T19:37:31.657Z,16.00
2023-02-01T19:38:35.333Z,25.10
2023-02-01T19:39:39.449Z,29.00
2023-02-01T19:40:43.137Z,19.70
2023-02-01T19:41:46.271Z,21.60
2023-02-01T19:42:49.361Z,29.70
2023-02-01T19:43:53.982Z,28.50
2023-02-01T19:44:56.322Z,30.50
2023-02-01T19:45:59.322Z,26.50
2023-02-01T19:47:01.832Z,21.00
2023-02-01T19:48:06.939Z,28.20
2023-02-01T19:49:11.191Z,12.00
2023-02-01T19:50:19.076Z,28.20
2023-02-01T19:51:21.245Z,22.90
2023-02-01T19:52:24.360Z,31.00
2023-02-01T19:53:30.292Z,34.10
2023-02-01T19:54:36.408Z,38.10
2023-02-01T19:55:45.337Z,35.70
2023-02-01T19:56:50.811Z,30.70
2023-02-01T19:57:53.872Z,41.00
2023-02-01T19:58:59.285Z,35.73
2023-02-01T20:00:02.431Z,41.70
2023-02-01T20:01:06.591Z,48.00
2023-02-01T20:02:16.489Z,50.80
2023-02-01T20:03:18.527Z,50.10
2023-02-01T20:04:21.391Z,57.56
2023-02-01T20:05:24.293Z,47.64
2023-02-01T20:06:29.697Z,48.00
2023-02-01T20:07:31.792Z,36.70
2023-02-01T20:08:34.031Z,47.33
2023-02-01T20:09:39.310Z,66.00
2023-02-01T20:10:45.399Z,41.10
2023-02-01T20:11:49.122Z,46.30
2023-02-01T20:12:51.724Z,55.90
2023-02-01T20:13:55.144Z,44.60
2023-02-01T20:14:57.427Z,40.60
2023-02-01T20:15:59.681Z,35.50
2023-02-01T20:17:02.745Z,32.70